Arundel, Maine
Current Conditions -  °F | °C
As of 5:15 AM on Friday 21 Nov 2014 (Local Time) from KSFM Reporting Station
Clear Clear  
Wind Chill: 14°   Ceiling: Unl
Heat Index: 25°   Visibility: 10mi
Dew Point:   Wind: 12mph
Humidity: 50%   Direction: 270°W
Pressure: 29.91"   Gusts: 20mph
Location:  43.4079°N, 70.4735°W
Report Text: KSFM 211015Z AUTO 27010G17KT 10SM CLR M04/M13 A2991 RMK AO1
Loading
Personal Weather Stations






























Interactive Weather Map New forecast layout! Learn more

10-Day Weather Forecast

Advertisements
Track Severe Weather on mobile